sensor_id;sensor_type;location;lat;lon;timestamp;pressure;altitude;pressure_sealevel;temperature;humidity
53889;BME280;41337;51.400;-2.342;2022-08-04T00:03:42;101016.78;;;17.64;100.00
53889;BME280;41337;51.400;-2.342;2022-08-04T00:09:12;101007.38;;;17.52;100.00
53889;BME280;41337;51.400;-2.342;2022-08-04T00:14:20;101001.69;;;17.33;100.00
53889;BME280;41337;51.400;-2.342;2022-08-04T00:19:32;101002.72;;;17.26;100.00
53889;BME280;41337;51.400;-2.342;2022-08-04T00:24:39;101000.34;;;17.15;100.00
53889;BME280;41337;51.400;-2.342;2022-08-04T00:29:40;100994.53;;;16.99;100.00
53889;BME280;41337;51.400;-2.342;2022-08-04T00:34:42;100992.00;;;16.95;100.00
53889;BME280;41337;51.400;-2.342;2022-08-04T00:39:43;100995.50;;;16.97;100.00
53889;BME280;41337;51.400;-2.342;2022-08-04T01:07:12;100988.94;;;16.73;100.00
53889;BME280;41337;51.400;-2.342;2022-08-04T01:17:23;100986.78;;;16.49;100.00
53889;BME280;41337;51.400;-2.342;2022-08-04T01:33:33;100976.75;;;16.23;100.00
53889;BME280;41337;51.400;-2.342;2022-08-04T01:38:41;100964.66;;;16.13;100.00
53889;BME280;41337;51.400;-2.342;2022-08-04T01:43:44;100965.72;;;16.03;100.00
53889;BME280;41337;51.400;-2.342;2022-08-04T01:48:50;100964.03;;;15.99;100.00
53889;BME280;41337;51.400;-2.342;2022-08-04T01:53:53;100966.66;;;15.99;100.00
53889;BME280;41337;51.400;-2.342;2022-08-04T01:58:59;100967.56;;;15.98;100.00
53889;BME280;41337;51.400;-2.342;2022-08-04T02:04:02;100969.38;;;15.95;100.00
53889;BME280;41337;51.400;-2.342;2022-08-04T02:14:37;100974.03;;;15.78;100.00
53889;BME280;41337;51.400;-2.342;2022-08-04T02:24:49;100968.94;;;15.66;100.00
53889;BME280;41337;51.400;-2.342;2022-08-04T02:30:02;100961.34;;;15.47;100.00
53889;BME280;41337;51.400;-2.342;2022-08-04T02:35:15;100961.59;;;15.32;100.00
53889;BME280;41337;51.400;-2.342;2022-08-04T02:40:44;100962.56;;;15.26;100.00
53889;BME280;41337;51.400;-2.342;2022-08-04T02:45:46;100967.13;;;15.10;100.00
53889;BME280;41337;51.400;-2.342;2022-08-04T02:50:51;100966.47;;;14.97;100.00
53889;BME280;41337;51.400;-2.342;2022-08-04T02:55:53;100955.00;;;15.03;100.00
53889;BME280;41337;51.400;-2.342;2022-08-04T03:00:55;100956.97;;;14.85;100.00
53889;BME280;41337;51.400;-2.342;2022-08-04T03:11:55;100957.19;;;14.70;100.00
53889;BME280;41337;51.400;-2.342;2022-08-04T03:28:46;100939.16;;;14.39;100.00
53889;BME280;41337;51.400;-2.342;2022-08-04T03:45:41;100943.75;;;14.20;100.00
53889;BME280;41337;51.400;-2.342;2022-08-04T04:33:19;100984.16;;;13.96;100.00
53889;BME280;41337;51.400;-2.342;2022-08-04T04:44:50;100956.25;;;13.92;100.00
53889;BME280;41337;51.400;-2.342;2022-08-04T04:49:58;100967.56;;;13.94;100.00
53889;BME280;41337;51.400;-2.342;2022-08-04T04:55:28;100974.59;;;13.92;100.00
53889;BME280;41337;51.400;-2.342;2022-08-04T05:00:48;100963.22;;;13.96;100.00
53889;BME280;41337;51.400;-2.342;2022-08-04T05:11:48;100983.19;;;14.08;100.00
53889;BME280;41337;51.400;-2.342;2022-08-04T05:17:19;100991.06;;;14.03;100.00
53889;BME280;41337;51.400;-2.342;2022-08-04T05:22:27;101005.00;;;14.08;100.00
53889;BME280;41337;51.400;-2.342;2022-08-04T05:27:35;101004.03;;;14.19;100.00
53889;BME280;41337;51.400;-2.342;2022-08-04T05:32:45;101004.94;;;14.14;100.00
53889;BME280;41337;51.400;-2.342;2022-08-04T05:37:48;101006.69;;;14.16;100.00
53889;BME280;41337;51.400;-2.342;2022-08-04T05:42:56;101005.75;;;14.21;100.00
53889;BME280;41337;51.400;-2.342;2022-08-04T05:47:57;101015.28;;;14.27;100.00
53889;BME280;41337;51.400;-2.342;2022-08-04T05:53:02;101012.63;;;14.31;100.00
53889;BME280;41337;51.400;-2.342;2022-08-04T05:58:03;101016.97;;;14.36;100.00
53889;BME280;41337;51.400;-2.342;2022-08-04T06:03:05;101029.06;;;14.50;100.00
53889;BME280;41337;51.400;-2.342;2022-08-04T06:08:06;101031.59;;;14.58;100.00
53889;BME280;41337;51.400;-2.342;2022-08-04T06:13:12;101037.59;;;14.71;100.00
53889;BME280;41337;51.400;-2.342;2022-08-04T06:18:17;101042.56;;;14.97;100.00
53889;BME280;41337;51.400;-2.342;2022-08-04T06:23:26;101027.28;;;15.29;100.00
53889;BME280;41337;51.400;-2.342;2022-08-04T06:28:33;101039.13;;;15.54;100.00
53889;BME280;41337;51.400;-2.342;2022-08-04T06:33:35;101047.44;;;15.87;100.00
53889;BME280;41337;51.400;-2.342;2022-08-04T06:38:37;101053.13;;;16.15;100.00
53889;BME280;41337;51.400;-2.342;2022-08-04T06:43:42;101062.47;;;16.32;100.00
53889;BME280;41337;51.400;-2.342;2022-08-04T06:48:44;101062.84;;;16.59;100.00
53889;BME280;41337;51.400;-2.342;2022-08-04T06:53:46;101067.59;;;16.88;100.00
53889;BME280;41337;51.400;-2.342;2022-08-04T06:58:48;101074.91;;;17.16;100.00
53889;BME280;41337;51.400;-2.342;2022-08-04T07:03:55;101085.81;;;17.41;100.00
53889;BME280;41337;51.400;-2.342;2022-08-04T07:08:56;101089.03;;;17.54;100.00
53889;BME280;41337;51.400;-2.342;2022-08-04T07:14:02;101103.78;;;17.63;100.00
53889;BME280;41337;51.400;-2.342;2022-08-04T07:19:04;101105.31;;;17.71;100.00
53889;BME280;41337;51.400;-2.342;2022-08-04T07:24:05;101119.06;;;17.87;100.00
53889;BME280;41337;51.400;-2.342;2022-08-04T07:29:07;101121.22;;;18.07;100.00
53889;BME280;41337;51.400;-2.342;2022-08-04T07:34:13;101123.84;;;18.43;100.00
53889;BME280;41337;51.400;-2.342;2022-08-04T07:39:14;101132.41;;;18.87;100.00
53889;BME280;41337;51.400;-2.342;2022-08-04T07:44:16;101139.88;;;19.04;100.00
53889;BME280;41337;51.400;-2.342;2022-08-04T07:49:17;101143.25;;;19.10;100.00
53889;BME280;41337;51.400;-2.342;2022-08-04T07:54:25;101148.13;;;18.92;100.00
53889;BME280;41337;51.400;-2.342;2022-08-04T07:59:26;101148.41;;;18.80;100.00
53889;BME280;41337;51.400;-2.342;2022-08-04T08:04:28;101156.41;;;18.78;100.00
53889;BME280;41337;51.400;-2.342;2022-08-04T08:09:34;101166.72;;;18.87;100.00
53889;BME280;41337;51.400;-2.342;2022-08-04T08:14:35;101165.28;;;18.74;100.00
53889;BME280;41337;51.400;-2.342;2022-08-04T08:19:37;101172.06;;;18.84;100.00
53889;BME280;41337;51.400;-2.342;2022-08-04T08:24:38;101182.47;;;19.23;100.00
53889;BME280;41337;51.400;-2.342;2022-08-04T08:29:39;101178.34;;;19.44;100.00
53889;BME280;41337;51.400;-2.342;2022-08-04T08:34:47;101174.81;;;19.46;100.00
53889;BME280;41337;51.400;-2.342;2022-08-04T08:45:58;101186.63;;;19.63;100.00
53889;BME280;41337;51.400;-2.342;2022-08-04T09:13:40;101208.13;;;20.39;100.00
53889;BME280;41337;51.400;-2.342;2022-08-04T09:30:04;101214.34;;;21.17;98.87
53889;BME280;41337;51.400;-2.342;2022-08-04T09:40:54;101217.66;;;21.23;94.30
53889;BME280;41337;51.400;-2.342;2022-08-04T09:46:04;101213.94;;;21.04;88.86
53889;BME280;41337;51.400;-2.342;2022-08-04T09:51:33;101221.75;;;20.82;94.29
53889;BME280;41337;51.400;-2.342;2022-08-04T10:02:17;101218.66;;;21.44;84.66
53889;BME280;41337;51.400;-2.342;2022-08-04T10:28:16;101234.66;;;21.90;82.74
53889;BME280;41337;51.400;-2.342;2022-08-04T10:33:24;101229.16;;;22.18;78.34
53889;BME280;41337;51.400;-2.342;2022-08-04T10:39:07;101226.38;;;22.22;77.80
53889;BME280;41337;51.400;-2.342;2022-08-04T10:49:53;101232.53;;;22.66;75.23
53889;BME280;41337;51.400;-2.342;2022-08-04T10:55:17;101234.47;;;22.83;69.41
53889;BME280;41337;51.400;-2.342;2022-08-04T11:00:28;101236.84;;;22.69;69.14
53889;BME280;41337;51.400;-2.342;2022-08-04T11:05:56;101242.78;;;22.76;63.96
53889;BME280;41337;51.400;-2.342;2022-08-04T11:16:12;101247.09;;;22.78;55.70
53889;BME280;41337;51.400;-2.342;2022-08-04T11:21:25;101256.13;;;23.17;49.03
53889;BME280;41337;51.400;-2.342;2022-08-04T11:26:59;101255.66;;;23.27;45.24
53889;BME280;41337;51.400;-2.342;2022-08-04T11:32:02;101259.94;;;23.51;46.53
53889;BME280;41337;51.400;-2.342;2022-08-04T11:37:15;101257.94;;;23.95;42.75
53889;BME280;41337;51.400;-2.342;2022-08-04T11:42:34;101264.00;;;24.18;42.33
53889;BME280;41337;51.400;-2.342;2022-08-04T11:47:56;101269.28;;;24.37;42.76
53889;BME280;41337;51.400;-2.342;2022-08-04T11:53:00;101268.00;;;24.27;43.04
53889;BME280;41337;51.400;-2.342;2022-08-04T11:58:07;101274.09;;;24.48;41.50
53889;BME280;41337;51.400;-2.342;2022-08-04T12:03:31;101265.53;;;24.41;43.27
53889;BME280;41337;51.400;-2.342;2022-08-04T12:14:40;101289.38;;;24.81;39.42
53889;BME280;41337;51.400;-2.342;2022-08-04T12:19:50;101274.97;;;24.85;40.03
53889;BME280;41337;51.400;-2.342;2022-08-04T12:24:58;101277.88;;;25.15;38.20
53889;BME280;41337;51.400;-2.342;2022-08-04T12:30:02;101275.19;;;25.15;36.88
53889;BME280;41337;51.400;-2.342;2022-08-04T12:35:38;101268.22;;;24.95;38.73
53889;BME280;41337;51.400;-2.342;2022-08-04T12:40:45;101278.13;;;25.28;38.62
53889;BME280;41337;51.400;-2.342;2022-08-04T12:45:54;101266.19;;;25.18;40.90
53889;BME280;41337;51.400;-2.342;2022-08-04T12:50:58;101276.97;;;25.67;37.58
53889;BME280;41337;51.400;-2.342;2022-08-04T12:56:15;101277.22;;;25.45;37.55
53889;BME280;41337;51.400;-2.342;2022-08-04T13:01:23;101275.13;;;25.68;37.11
53889;BME280;41337;51.400;-2.342;2022-08-04T13:06:34;101281.31;;;25.52;37.56
53889;BME280;41337;51.400;-2.342;2022-08-04T13:12:03;101281.69;;;25.62;37.07
53889;BME280;41337;51.400;-2.342;2022-08-04T13:17:06;101278.31;;;25.58;37.24
53889;BME280;41337;51.400;-2.342;2022-08-04T13:22:11;101258.97;;;26.04;35.60
53889;BME280;41337;51.400;-2.342;2022-08-04T13:27:21;101267.00;;;25.87;35.78
53889;BME280;41337;51.400;-2.342;2022-08-04T13:32:30;101265.41;;;26.00;36.28
53889;BME280;41337;51.400;-2.342;2022-08-04T13:37:34;101266.97;;;26.20;34.84
53889;BME280;41337;51.400;-2.342;2022-08-04T13:42:40;101264.19;;;26.06;35.69
53889;BME280;41337;51.400;-2.342;2022-08-04T13:47:48;101270.50;;;26.21;36.00
53889;BME280;41337;51.400;-2.342;2022-08-04T13:52:53;101259.91;;;26.19;36.86
53889;BME280;41337;51.400;-2.342;2022-08-04T13:58:12;101252.50;;;26.24;34.67
53889;BME280;41337;51.400;-2.342;2022-08-04T14:03:24;101264.03;;;26.09;35.53
53889;BME280;41337;51.400;-2.342;2022-08-04T14:08:27;101258.34;;;26.31;34.54
53889;BME280;41337;51.400;-2.342;2022-08-04T14:13:30;101265.84;;;26.40;34.63
53889;BME280;41337;51.400;-2.342;2022-08-04T14:18:35;101260.09;;;26.32;34.75
53889;BME280;41337;51.400;-2.342;2022-08-04T14:23:48;101276.31;;;26.75;33.86
53889;BME280;41337;51.400;-2.342;2022-08-04T14:29:12;101267.78;;;26.52;33.83
53889;BME280;41337;51.400;-2.342;2022-08-04T14:34:25;101266.78;;;26.55;34.84
53889;BME280;41337;51.400;-2.342;2022-08-04T14:39:43;101276.66;;;26.53;34.40
53889;BME280;41337;51.400;-2.342;2022-08-04T14:44:55;101273.31;;;26.33;34.03
53889;BME280;41337;51.400;-2.342;2022-08-04T14:49:59;101270.50;;;26.05;34.22
53889;BME280;41337;51.400;-2.342;2022-08-04T14:55:23;101263.69;;;26.47;33.43
53889;BME280;41337;51.400;-2.342;2022-08-04T15:00:31;101276.09;;;26.32;33.00
53889;BME280;41337;51.400;-2.342;2022-08-04T15:05:32;101269.47;;;26.23;33.17
53889;BME280;41337;51.400;-2.342;2022-08-04T15:10:39;101273.84;;;26.08;33.64
53889;BME280;41337;51.400;-2.342;2022-08-04T15:15:41;101277.38;;;26.09;33.46
53889;BME280;41337;51.400;-2.342;2022-08-04T15:20:48;101276.34;;;26.11;32.80
53889;BME280;41337;51.400;-2.342;2022-08-04T15:25:53;101271.50;;;26.66;31.93
53889;BME280;41337;51.400;-2.342;2022-08-04T15:31:00;101278.91;;;26.61;32.14
53889;BME280;41337;51.400;-2.342;2022-08-04T15:36:30;101276.75;;;26.51;31.49
53889;BME280;41337;51.400;-2.342;2022-08-04T15:41:46;101279.19;;;26.40;32.28
53889;BME280;41337;51.400;-2.342;2022-08-04T15:52:07;101273.78;;;26.26;32.20
53889;BME280;41337;51.400;-2.342;2022-08-04T15:57:12;101277.53;;;25.90;32.47
53889;BME280;41337;51.400;-2.342;2022-08-04T16:07:55;101282.56;;;25.78;33.00
53889;BME280;41337;51.400;-2.342;2022-08-04T16:13:23;101272.97;;;26.24;32.12
53889;BME280;41337;51.400;-2.342;2022-08-04T16:28:48;101272.03;;;26.56;30.71
53889;BME280;41337;51.400;-2.342;2022-08-04T16:33:57;101273.16;;;26.68;31.17
53889;BME280;41337;51.400;-2.342;2022-08-04T16:39:03;101277.34;;;27.33;29.53
53889;BME280;41337;51.400;-2.342;2022-08-04T16:50:01;101276.56;;;26.54;30.62
53889;BME280;41337;51.400;-2.342;2022-08-04T16:55:02;101278.13;;;27.05;30.00
53889;BME280;41337;51.400;-2.342;2022-08-04T17:00:07;101277.63;;;27.43;28.49
53889;BME280;41337;51.400;-2.342;2022-08-04T17:05:22;101275.94;;;27.56;28.22
53889;BME280;41337;51.400;-2.342;2022-08-04T17:10:45;101276.06;;;27.24;29.12
53889;BME280;41337;51.400;-2.342;2022-08-04T17:15:49;101277.00;;;26.63;29.81
53889;BME280;41337;51.400;-2.342;2022-08-04T17:20:52;101276.34;;;26.43;30.26
53889;BME280;41337;51.400;-2.342;2022-08-04T17:25:55;101278.59;;;26.67;29.93
53889;BME280;41337;51.400;-2.342;2022-08-04T17:30:57;101276.06;;;26.80;29.56
53889;BME280;41337;51.400;-2.342;2022-08-04T17:36:01;101279.53;;;26.66;29.84
53889;BME280;41337;51.400;-2.342;2022-08-04T17:41:06;101286.59;;;26.67;29.41
53889;BME280;41337;51.400;-2.342;2022-08-04T17:46:18;101281.66;;;26.59;30.11
53889;BME280;41337;51.400;-2.342;2022-08-04T17:51:20;101291.06;;;26.18;30.46
53889;BME280;41337;51.400;-2.342;2022-08-04T18:07:01;101292.63;;;27.31;30.99
53889;BME280;41337;51.400;-2.342;2022-08-04T18:12:54;101294.66;;;27.85;29.45
53889;BME280;41337;51.400;-2.342;2022-08-04T18:17:42;101289.72;;;27.93;28.34
53889;BME280;41337;51.400;-2.342;2022-08-04T18:22:46;101296.97;;;27.62;28.97
53889;BME280;41337;51.400;-2.342;2022-08-04T18:27:52;101309.03;;;27.25;30.29
53889;BME280;41337;51.400;-2.342;2022-08-04T18:32:54;101315.44;;;27.22;31.40
53889;BME280;41337;51.400;-2.342;2022-08-04T18:37:55;101312.97;;;26.41;32.93
53889;BME280;41337;51.400;-2.342;2022-08-04T18:42:55;101317.31;;;25.61;34.39
53889;BME280;41337;51.400;-2.342;2022-08-04T18:48:00;101330.47;;;24.77;35.92
53889;BME280;41337;51.400;-2.342;2022-08-04T18:53:00;101329.16;;;24.09;37.08
53889;BME280;41337;51.400;-2.342;2022-08-04T18:58:01;101341.00;;;23.62;38.10
53889;BME280;41337;51.400;-2.342;2022-08-04T19:03:03;101349.38;;;23.53;38.63
53889;BME280;41337;51.400;-2.342;2022-08-04T19:08:04;101350.97;;;23.37;39.34
53889;BME280;41337;51.400;-2.342;2022-08-04T19:13:11;101354.34;;;22.98;40.76
53889;BME280;41337;51.400;-2.342;2022-08-04T19:18:12;101356.69;;;22.83;40.87
53889;BME280;41337;51.400;-2.342;2022-08-04T19:23:13;101361.63;;;22.48;42.05
53889;BME280;41337;51.400;-2.342;2022-08-04T19:28:13;101361.47;;;22.28;42.86
53889;BME280;41337;51.400;-2.342;2022-08-04T19:33:15;101364.66;;;22.14;43.44
53889;BME280;41337;51.400;-2.342;2022-08-04T19:38:18;101372.09;;;22.04;44.00
53889;BME280;41337;51.400;-2.342;2022-08-04T19:43:20;101379.78;;;21.87;44.57
53889;BME280;41337;51.400;-2.342;2022-08-04T19:48:22;101388.28;;;21.44;46.61
53889;BME280;41337;51.400;-2.342;2022-08-04T19:53:23;101390.91;;;21.19;48.42
53889;BME280;41337;51.400;-2.342;2022-08-04T19:58:24;101395.78;;;21.05;49.95
53889;BME280;41337;51.400;-2.342;2022-08-04T20:03:28;101400.69;;;20.89;51.15
53889;BME280;41337;51.400;-2.342;2022-08-04T20:08:29;101413.47;;;20.76;51.69
53889;BME280;41337;51.400;-2.342;2022-08-04T20:13:30;101430.13;;;20.50;53.85
53889;BME280;41337;51.400;-2.342;2022-08-04T20:18:31;101431.53;;;20.32;55.65
53889;BME280;41337;51.400;-2.342;2022-08-04T20:23:32;101438.28;;;20.11;57.85
53889;BME280;41337;51.400;-2.342;2022-08-04T20:28:33;101442.06;;;20.01;57.65
53889;BME280;41337;51.400;-2.342;2022-08-04T20:33:34;101452.41;;;19.77;60.06
53889;BME280;41337;51.400;-2.342;2022-08-04T20:38:38;101456.38;;;19.57;64.05
53889;BME280;41337;51.400;-2.342;2022-08-04T20:43:39;101462.09;;;19.40;65.07
53889;BME280;41337;51.400;-2.342;2022-08-04T20:48:40;101469.44;;;19.28;66.06
53889;BME280;41337;51.400;-2.342;2022-08-04T20:53:41;101482.84;;;19.18;68.72
53889;BME280;41337;51.400;-2.342;2022-08-04T20:58:41;101487.34;;;19.15;68.39
53889;BME280;41337;51.400;-2.342;2022-08-04T21:03:42;101486.56;;;19.11;68.91
53889;BME280;41337;51.400;-2.342;2022-08-04T21:09:02;101493.91;;;18.97;69.47
53889;BME280;41337;51.400;-2.342;2022-08-04T21:14:08;101502.66;;;18.99;67.24
53889;BME280;41337;51.400;-2.342;2022-08-04T21:19:09;101508.47;;;18.71;70.05
53889;BME280;41337;51.400;-2.342;2022-08-04T21:24:10;101512.09;;;18.67;68.36
53889;BME280;41337;51.400;-2.342;2022-08-04T21:29:10;101518.34;;;18.61;67.96
53889;BME280;41337;51.400;-2.342;2022-08-04T21:34:12;101522.34;;;18.37;70.40
53889;BME280;41337;51.400;-2.342;2022-08-04T21:39:13;101540.16;;;18.24;70.19
53889;BME280;41337;51.400;-2.342;2022-08-04T21:44:19;101531.69;;;18.07;71.87
53889;BME280;41337;51.400;-2.342;2022-08-04T21:49:20;101535.34;;;17.98;70.55
53889;BME280;41337;51.400;-2.342;2022-08-04T21:54:21;101534.66;;;17.85;73.02
53889;BME280;41337;51.400;-2.342;2022-08-04T21:59:22;101540.94;;;17.76;72.01
53889;BME280;41337;51.400;-2.342;2022-08-04T22:04:23;101544.56;;;17.69;73.18
53889;BME280;41337;51.400;-2.342;2022-08-04T22:09:24;101567.59;;;17.56;72.97
53889;BME280;41337;51.400;-2.342;2022-08-04T22:14:25;101558.03;;;17.51;73.18
53889;BME280;41337;51.400;-2.342;2022-08-04T22:19:29;101560.00;;;17.36;75.79
53889;BME280;41337;51.400;-2.342;2022-08-04T22:24:30;101565.38;;;17.27;74.31
53889;BME280;41337;51.400;-2.342;2022-08-04T22:29:31;101566.28;;;17.24;79.50
53889;BME280;41337;51.400;-2.342;2022-08-04T22:34:32;101565.44;;;17.21;79.22
53889;BME280;41337;51.400;-2.342;2022-08-04T22:39:34;101564.81;;;17.05;81.29
53889;BME280;41337;51.400;-2.342;2022-08-04T22:44:35;101565.69;;;17.02;78.46
53889;BME280;41337;51.400;-2.342;2022-08-04T22:49:40;101566.41;;;17.15;71.96
53889;BME280;41337;51.400;-2.342;2022-08-04T22:54:41;101564.81;;;17.03;65.87
53889;BME280;41337;51.400;-2.342;2022-08-04T22:59:42;101582.38;;;17.01;74.82
53889;BME280;41337;51.400;-2.342;2022-08-04T23:04:42;101591.16;;;17.02;71.61
53889;BME280;41337;51.400;-2.342;2022-08-04T23:09:43;101604.34;;;17.00;70.84
53889;BME280;41337;51.400;-2.342;2022-08-04T23:14:45;101600.81;;;17.01;68.27
53889;BME280;41337;51.400;-2.342;2022-08-04T23:19:46;101600.78;;;17.03;68.48
53889;BME280;41337;51.400;-2.342;2022-08-04T23:24:53;101616.63;;;17.00;68.48
53889;BME280;41337;51.400;-2.342;2022-08-04T23:29:54;101623.69;;;16.96;67.87
53889;BME280;41337;51.400;-2.342;2022-08-04T23:34:55;101612.22;;;17.03;68.63
53889;BME280;41337;51.400;-2.342;2022-08-04T23:39:56;101614.75;;;17.10;66.34
53889;BME280;41337;51.400;-2.342;2022-08-04T23:45:00;101629.66;;;17.11;67.53
53889;BME280;41337;51.400;-2.342;2022-08-04T23:50:01;101637.44;;;17.23;64.49
53889;BME280;41337;51.400;-2.342;2022-08-04T23:55:02;101628.84;;;17.05;64.61
